Time;durP1;ratioP1;P1;durP2;ratioP2;P2;SDS_P1;SDS_P2;PMS_P1;PMS_P2;Temp;Humidity;BMP_temperature;BMP_pressure;BME280_temperature;BME280_humidity;BME280_pressure;Samples;Min_cycle;Max_cycle;Signal;HPM_P1;HPM_P2
2022/12/21 00:01:30;;;;;;;;;4.00;2.00;;;;;20.63;38.28;101058.78;5033834;28;46209;-68
2022/12/21 00:03:58;;;;;;;;;3.50;3.50;;;;;20.65;38.33;101060.44;5051873;28;45603;-68
2022/12/21 00:06:25;;;;;;;;;3.50;3.50;;;;;20.54;38.42;101048.38;5054348;28;45468;-68
2022/12/21 00:08:52;;;;;;;;;3.00;3.00;;;;;20.65;37.94;101065.72;5054235;28;45555;-68
2022/12/21 00:11:21;;;;;;;;;3.25;3.25;;;;;20.64;38.16;101067.53;5054136;28;46147;-68
2022/12/21 00:13:46;;;;;;;;;3.50;3.50;;;;;20.62;38.36;101065.06;5054176;28;45312;-69
2022/12/21 00:16:14;;;;;;;;;2.00;2.00;;;;;20.61;38.11;101066.03;5054226;28;45443;-68
2022/12/21 00:18:40;;;;;;;;;4.00;3.00;;;;;20.62;38.12;101067.72;5054025;28;45341;-68
2022/12/21 00:21:07;;;;;;;;;2.50;2.00;;;;;20.59;38.59;101070.69;5053935;28;46169;-68
2022/12/21 00:23:33;;;;;;;;;4.00;3.00;;;;;20.61;38.46;101079.25;5054130;28;45233;-68
2022/12/21 00:26:00;;;;;;;;;3.75;2.75;;;;;20.63;38.35;101087.03;5054119;28;45293;-68
2022/12/21 00:28:26;;;;;;;;;4.00;3.25;;;;;20.60;38.41;101077.63;5054092;28;45275;-68
2022/12/21 00:30:51;;;;;;;;;3.75;3.75;;;;;20.62;38.44;101086.22;5053862;28;45973;-68
2022/12/21 00:33:16;;;;;;;;;2.00;2.00;;;;;20.62;38.49;101083.56;5053813;28;45317;-68
2022/12/21 00:35:49;;;;;;;;;3.00;3.00;;;;;20.62;38.41;101083.56;5054060;28;45560;-68
2022/12/21 00:38:15;;;;;;;;;2.67;2.67;;;;;20.58;37.90;101076.13;5053995;28;45313;-68
2022/12/21 00:40:41;;;;;;;;;3.75;3.75;;;;;20.61;38.45;101089.84;5053695;28;45235;-68
2022/12/21 00:43:06;;;;;;;;;3.25;3.25;;;;;20.56;38.44;101072.81;5053856;28;45340;-68
2022/12/21 00:45:32;;;;;;;;;3.25;3.00;;;;;20.61;38.33;101068.69;5053895;28;45352;-68
2022/12/21 00:47:57;;;;;;;;;5.50;2.50;;;;;20.62;38.32;101062.41;5053574;28;45360;-68
2022/12/21 00:50:22;;;;;;;;;4.00;4.00;;;;;20.60;38.27;101048.56;5053711;28;45319;-69
2022/12/21 00:52:48;;;;;;;;;5.00;3.75;;;;;20.61;38.30;101050.19;5053818;28;45331;-68
2022/12/21 00:55:13;;;;;;;;;3.00;3.00;;;;;20.61;38.21;101049.34;5041177;28;45338;-68
2022/12/21 00:57:38;;;;;;;;;2.50;2.50;;;;;20.51;38.55;101029.22;5033560;28;45315;-68
2022/12/21 01:00:04;;;;;;;;;3.50;2.00;;;;;20.60;38.23;101043.25;5033516;28;46222;-69
2022/12/21 01:02:29;;;;;;;;;3.00;3.00;;;;;20.60;38.44;101042.44;5039152;28;45388;-68
2022/12/21 01:04:55;;;;;;;;;4.00;4.00;;;;;20.59;38.47;101032.84;5053686;28;45307;-68
2022/12/21 01:07:20;;;;;;;;;3.50;3.00;;;;;20.60;37.94;101029.22;5053756;28;45378;-68
2022/12/21 01:09:46;;;;;;;;;3.00;3.00;;;;;20.58;38.32;101018.78;5053618;28;45361;-68
2022/12/21 01:12:11;;;;;;;;;5.00;4.00;;;;;20.61;38.24;101026.38;5053563;28;45351;-68
2022/12/21 01:14:36;;;;;;;;;4.00;4.00;;;;;20.55;38.14;101019.13;5052764;28;45238;-68
2022/12/21 01:17:02;;;;;;;;;3.25;3.25;;;;;20.60;38.51;101027.41;5053086;28;45418;-68
2022/12/21 01:19:27;;;;;;;;;1.75;1.75;;;;;20.60;38.34;101031.84;5053459;28;45993;-68
2022/12/21 01:21:52;;;;;;;;;4.25;4.00;;;;;20.60;38.44;101026.56;5053395;28;45315;-68
2022/12/21 01:24:17;;;;;;;;;4.00;4.00;;;;;20.60;38.31;101023.94;5053522;28;45296;-68
2022/12/21 01:26:43;;;;;;;;;5.00;3.75;;;;;20.60;38.35;101021.28;5053438;28;45360;-68
2022/12/21 01:29:13;;;;;;;;;5.00;4.50;;;;;20.59;38.17;101016.97;5053254;28;45246;-68
2022/12/21 01:31:38;;;;;;;;;1.00;1.00;;;;;20.61;38.37;101030.84;5053020;28;45371;-68
2022/12/21 01:34:03;;;;;;;;;4.00;3.25;;;;;20.61;38.33;101036.13;5053432;28;45391;-68
2022/12/21 01:36:29;;;;;;;;;3.25;3.00;;;;;20.60;38.25;101024.75;5054736;27;45431;-68
2022/12/21 01:38:54;;;;;;;;;3.25;2.00;;;;;20.61;38.29;101023.75;5052920;28;48074;-68
2022/12/21 01:41:23;;;;;;;;;3.00;3.00;;;;;20.62;38.38;101024.56;5053193;28;45363;-68
2022/12/21 01:43:51;;;;;;;;;2.75;2.75;;;;;20.61;38.40;101009.69;5053215;28;45281;-68
2022/12/21 01:46:50;;;;;;;;;2.00;2.00;;;;;20.62;38.26;101025.41;5053013;28;45423;-68
2022/12/21 01:49:30;;;;;;;;;3.75;3.00;;;;;20.63;38.24;101028.88;5052860;28;46206;-68
2022/12/21 01:52:02;;;;;;;;;4.00;2.75;;;;;20.63;38.16;101021.75;5052756;28;45335;-68
2022/12/21 01:54:35;;;;;;;;;3.75;3.50;;;;;20.62;38.34;101025.41;5046720;28;45443;-68
2022/12/21 01:57:07;;;;;;;;;6.00;5.00;;;;;20.63;38.16;101031.53;5032759;28;45340;-68
2022/12/21 01:59:36;;;;;;;;;2.50;2.50;;;;;20.52;38.40;101019.47;5032396;28;46276;-68
2022/12/21 02:02:06;;;;;;;;;3.00;3.00;;;;;20.65;38.33;101044.56;5034768;28;45355;-68
2022/12/21 02:04:32;;;;;;;;;4.00;3.00;;;;;20.65;37.97;101034.81;5052995;28;45359;-68
2022/12/21 02:06:58;;;;;;;;;3.50;3.00;;;;;20.66;38.25;101035.66;5052819;28;45333;-69
2022/12/21 02:09:27;;;;;;;;;4.25;2.00;;;;;20.65;38.13;101039.28;5052600;28;47378;-68
2022/12/21 02:11:53;;;;;;;;;5.00;2.00;;;;;20.60;38.12;101027.41;5052799;28;45299;-68
2022/12/21 02:14:18;;;;;;;;;4.00;3.50;;;;;20.63;38.44;101039.47;5034366;28;45282;-68
2022/12/21 02:16:47;;;;;;;;;3.00;2.00;;;;;20.65;38.22;101044.56;5052584;28;45217;-68
2022/12/21 02:19:44;;;;;;;;;3.00;3.00;;;;;20.65;38.07;101031.34;5052595;28;46261;-68
2022/12/21 02:22:34;;;;;;;;;2.75;2.50;;;;;20.63;38.07;101032.34;4951548;28;45420;-68
2022/12/21 02:25:23;;;;;;;;;3.00;3.00;;;;;20.63;38.31;101050.03;4951954;28;45390;-68
2022/12/21 02:28:00;;;;;;;;;0.00;0.00;;;;;20.63;38.25;101055.31;4954156;28;45508;-68
2022/12/21 02:30:45;;;;;;;;;3.00;3.00;;;;;20.63;38.20;101064.06;4954255;28;47287;-68
2022/12/21 02:33:22;;;;;;;;;4.00;3.00;;;;;20.63;38.24;101068.53;4954406;28;45309;-68
2022/12/21 02:35:56;;;;;;;;;3.25;2.00;;;;;20.62;38.38;101073.00;4954340;28;45507;-68
2022/12/21 02:38:37;;;;;;;;;3.00;3.00;;;;;20.62;38.33;101069.53;4954271;28;45382;-69
2022/12/21 02:41:34;;;;;;;;;3.50;3.50;;;;;20.62;38.21;101058.94;4953716;28;45333;-68
2022/12/21 02:44:15;;;;;;;;;2.50;2.50;;;;;20.62;38.20;101067.72;4896321;29;45490;-68
2022/12/21 02:47:04;;;;;;;;;2.50;2.50;;;;;20.61;38.18;101068.69;4896795;28;45335;-68
2022/12/21 02:49:37;;;;;;;;;4.00;2.50;;;;;20.61;38.03;101059.94;4896720;29;45497;-68
2022/12/21 02:52:26;;;;;;;;;2.75;2.75;;;;;20.56;38.47;101055.13;4896711;28;46273;-68
2022/12/21 02:54:57;;;;;;;;;5.00;3.50;;;;;20.61;38.40;101059.94;4887411;29;45333;-68
2022/12/21 02:57:33;;;;;;;;;3.00;3.00;;;;;20.60;38.56;101059.13;4877379;29;45488;-68
2022/12/21 03:00:01;;;;;;;;;3.00;3.00;;;;;20.61;38.35;101071.34;4945042;28;45594;-68
2022/12/21 03:02:32;;;;;;;;;4.00;4.00;;;;;20.60;38.10;101074.16;4959141;28;46281;-68
2022/12/21 03:05:17;;;;;;;;;3.00;3.00;;;;;20.60;38.29;101074.16;4973664;28;45520;-68
2022/12/21 03:08:25;;;;;;;;;3.50;3.00;;;;;20.60;38.20;101069.69;4973552;28;45502;-69
2022/12/21 03:11:00;;;;;;;;;3.00;3.00;;;;;20.60;38.44;101077.63;4973636;28;45348;-68
2022/12/21 03:13:45;;;;;;;;;4.25;3.50;;;;;20.60;38.36;101072.34;4972586;28;45387;-68
2022/12/21 03:16:26;;;;;;;;;2.75;2.75;;;;;20.60;38.40;101072.34;4973291;28;45461;-68
2022/12/21 03:19:16;;;;;;;;;5.00;4.00;;;;;20.60;38.13;101077.63;4988247;28;45359;-68
2022/12/21 03:21:47;;;;;;;;;2.75;2.75;;;;;20.55;38.41;101056.16;5054908;28;45300;-68
2022/12/21 03:24:28;;;;;;;;;5.00;5.00;;;;;20.60;38.61;101067.06;5054762;28;45420;-68
2022/12/21 03:27:01;;;;;;;;;4.00;4.00;;;;;20.60;38.52;101071.50;5054345;28;45272;-68
2022/12/21 03:29:33;;;;;;;;;5.75;4.75;;;;;20.59;38.27;101065.38;5036773;28;45491;-68
2022/12/21 03:32:06;;;;;;;;;3.00;3.00;;;;;20.50;38.44;101053.16;5054815;28;45298;-68
2022/12/21 03:34:39;;;;;;;;;3.00;3.00;;;;;20.54;38.10;101053.66;5054579;28;45453;-68
2022/12/21 03:37:04;;;;;;;;;5.25;5.00;;;;;20.59;38.22;101067.19;5036067;28;46011;-68
2022/12/21 03:39:35;;;;;;;;;4.00;2.50;;;;;20.58;38.24;101069.00;5054745;28;45380;-68
2022/12/21 03:42:23;;;;;;;;;4.75;3.00;;;;;20.59;38.21;101067.19;5054404;28;45340;-68
2022/12/21 03:45:04;;;;;;;;;3.00;3.00;;;;;20.59;38.28;101075.13;5054255;28;46156;-68
2022/12/21 03:47:41;;;;;;;;;1.00;1.00;;;;;20.60;38.28;101068.88;5054393;28;45303;-68
2022/12/21 03:50:13;;;;;;;;;2.25;2.25;;;;;20.59;38.27;101078.59;5054761;28;45398;-68
2022/12/21 03:52:52;;;;;;;;;0.00;0.00;;;;;20.59;38.36;101091.81;5054549;28;45266;-68
2022/12/21 03:55:23;;;;;;;;;3.00;3.00;;;;;20.60;38.37;101084.72;5040775;28;45378;-68
2022/12/21 03:57:50;;;;;;;;;3.75;3.75;;;;;20.61;38.49;101086.34;5034122;28;45284;-68
2022/12/21 04:00:16;;;;;;;;;4.50;4.50;;;;;20.61;38.36;101087.19;5034283;28;45376;-68
2022/12/21 04:02:56;;;;;;;;;2.75;2.25;;;;;20.57;38.05;101069.19;5041860;28;45604;-68
2022/12/21 04:05:43;;;;;;;;;2.00;2.00;;;;;20.60;38.54;101082.91;5054178;28;45331;-68
2022/12/21 04:08:09;;;;;;;;;2.00;2.00;;;;;20.53;37.95;101065.22;5054259;28;45255;-68
2022/12/21 04:10:35;;;;;;;;;2.00;2.00;;;;;20.62;38.19;101073.00;5054070;28;45335;-68
2022/12/21 04:13:00;;;;;;;;;4.00;2.75;;;;;20.62;38.36;101061.59;5054324;28;45409;-68
2022/12/21 04:18:11;;;;;;;;;3.25;3.25;;;;;20.63;38.35;101068.53;5054209;28;45415;-69
2022/12/21 04:20:36;;;;;;;;;2.00;2.00;;;;;20.62;38.43;101065.06;5054374;28;45333;-68
2022/12/21 04:28:31;;;;;;;;;4.00;3.00;;;;;20.63;38.08;101064.06;5053901;28;45353;-68
2022/12/21 04:30:58;;;;;;;;;2.00;2.00;;;;;20.52;38.35;101056.47;5054102;28;45335;-68
2022/12/21 04:33:25;;;;;;;;;3.50;3.50;;;;;20.49;37.88;101052.34;5054118;28;45300;-68
2022/12/21 04:38:38;;;;;;;;;3.00;2.75;;;;;20.63;38.42;101068.53;5053549;28;45333;-68
2022/12/21 04:41:03;;;;;;;;;3.00;3.00;;;;;20.63;38.17;101073.84;5036003;28;45481;-68
2022/12/21 04:43:29;;;;;;;;;2.00;2.00;;;;;20.61;38.22;101079.25;5053873;28;45466;-68
2022/12/21 04:46:01;;;;;;;;;3.00;3.00;;;;;20.62;38.03;101077.44;5053816;28;46129;-68
2022/12/21 04:48:27;;;;;;;;;2.75;2.75;;;;;20.62;38.25;101070.34;5052803;28;45490;-68
2022/12/21 04:50:52;;;;;;;;;2.50;2.50;;;;;20.62;38.14;101064.22;5054006;28;45616;-68
2022/12/21 04:53:17;;;;;;;;;2.50;2.50;;;;;20.62;38.41;101066.88;5035538;28;45455;-68
2022/12/21 04:55:45;;;;;;;;;3.00;3.00;;;;;20.62;38.35;101058.94;5036859;28;46029;-68
2022/12/21 04:58:10;;;;;;;;;2.75;2.75;;;;;20.61;38.08;101060.75;5033547;28;45320;-68
2022/12/21 05:00:35;;;;;;;;;2.50;2.00;;;;;20.61;38.42;101049.34;5033646;28;45332;-68
2022/12/21 05:03:01;;;;;;;;;2.25;2.25;;;;;20.61;38.21;101054.63;5043950;28;45292;-68
2022/12/21 05:05:26;;;;;;;;;3.75;2.00;;;;;20.61;38.44;101044.91;5053500;28;45383;-68
2022/12/21 05:07:52;;;;;;;;;2.50;2.50;;;;;20.61;38.12;101041.41;5053293;28;45416;-68
2022/12/21 05:10:17;;;;;;;;;4.00;3.00;;;;;20.58;38.23;101036.50;5053744;28;45329;-68
2022/12/21 05:12:43;;;;;;;;;2.00;2.00;;;;;20.61;38.26;101044.06;5053625;28;45502;-68
2022/12/21 05:15:09;;;;;;;;;2.75;2.75;;;;;20.61;38.02;101033.50;5053337;28;45843;-68
2022/12/21 05:17:34;;;;;;;;;3.75;3.00;;;;;20.59;38.27;101033.66;5053366;28;45296;-69
2022/12/21 05:20:00;;;;;;;;;2.25;2.25;;;;;20.54;38.31;101029.88;5053672;28;45475;-68
2022/12/21 05:22:25;;;;;;;;;3.00;3.00;;;;;20.50;38.15;101021.44;5053231;28;45241;-68
2022/12/21 05:24:51;;;;;;;;;3.50;2.00;;;;;20.60;38.31;101031.84;5053107;28;47060;-68
2022/12/21 05:27:17;;;;;;;;;2.00;2.00;;;;;20.60;38.20;101059.13;5053357;28;45645;-68
2022/12/21 05:29:42;;;;;;;;;2.75;2.75;;;;;20.58;38.25;101055.00;5053332;28;45317;-68
2022/12/21 05:32:07;;;;;;;;;4.00;2.50;;;;;20.58;38.23;101062.91;5035315;28;45579;-68
2022/12/21 05:34:33;;;;;;;;;4.25;2.00;;;;;20.58;38.14;101063.72;5053202;28;47334;-68
2022/12/21 05:36:58;;;;;;;;;2.50;2.00;;;;;20.59;38.07;101056.63;5052819;28;45421;-68
2022/12/21 05:39:23;;;;;;;;;2.00;2.00;;;;;20.49;38.03;101044.41;5053291;27;45365;-68
2022/12/21 05:41:49;;;;;;;;;4.00;4.00;;;;;20.59;38.18;101053.97;5052408;28;45462;-68
2022/12/21 05:44:14;;;;;;;;;2.75;2.25;;;;;20.59;38.36;101053.97;5053074;28;45395;-68
2022/12/21 05:46:39;;;;;;;;;4.50;3.00;;;;;20.58;38.17;101055.00;5053102;28;45402;-68
2022/12/21 05:49:04;;;;;;;;;2.25;2.00;;;;;20.59;38.25;101061.91;5053231;28;45391;-68
2022/12/21 05:51:30;;;;;;;;;3.00;3.00;;;;;20.58;38.32;101062.91;5052695;28;45439;-68
2022/12/21 05:53:55;;;;;;;;;1.75;1.75;;;;;20.58;38.51;101063.72;5051064;28;46318;-68
2022/12/21 05:56:21;;;;;;;;;2.00;2.00;;;;;20.53;38.26;101060.78;5032885;28;45316;-68
2022/12/21 05:58:46;;;;;;;;;3.50;2.00;;;;;20.57;38.22;101066.53;5032481;28;45288;-68
2022/12/21 06:01:12;;;;;;;;;2.00;1.50;;;;;20.55;38.34;101058.78;5032795;28;45615;-68
2022/12/21 06:03:39;;;;;;;;;3.00;3.00;;;;;20.57;38.25;101059.44;5048230;28;46015;-69
2022/12/21 06:06:07;;;;;;;;;3.00;2.00;;;;;20.58;38.10;101055.78;5052413;28;45504;-69
2022/12/21 06:08:33;;;;;;;;;2.75;2.25;;;;;20.59;38.30;101061.91;5052862;28;45422;-68
2022/12/21 06:11:04;;;;;;;;;1.75;1.75;;;;;20.60;38.15;101061.78;5052735;28;45372;-68
2022/12/21 06:13:29;;;;;;;;;4.00;2.00;;;;;20.60;38.28;101060.94;5052442;28;47200;-69
2022/12/21 06:15:55;;;;;;;;;2.00;2.00;;;;;20.60;38.36;101051.19;5052539;28;45423;-69
2022/12/21 06:18:20;;;;;;;;;4.00;2.00;;;;;20.57;38.45;101050.69;5052495;28;45233;-68
2022/12/21 06:20:54;;;;;;;;;2.00;2.00;;;;;20.53;38.01;101026.41;5052349;28;45485;-68
2022/12/21 06:23:20;;;;;;;;;3.25;2.50;;;;;20.61;37.94;101046.72;5052456;28;47241;-68
2022/12/21 06:25:45;;;;;;;;;3.50;2.75;;;;;20.61;38.26;101059.94;5052416;28;45268;-68
2022/12/21 06:28:11;;;;;;;;;3.00;3.00;;;;;20.62;38.01;101066.88;5052411;28;45323;-69
2022/12/21 06:30:36;;;;;;;;;2.75;2.75;;;;;20.61;37.85;101073.97;5052481;28;45429;-68
2022/12/21 06:33:02;;;;;;;;;3.00;1.75;;;;;20.61;37.86;101075.78;5052250;28;45547;-68
2022/12/21 06:35:27;;;;;;;;;2.00;2.00;;;;;20.58;38.16;101076.13;5052081;28;45266;-68
2022/12/21 06:37:52;;;;;;;;;1.50;1.50;;;;;20.62;38.04;101078.28;5052389;28;45376;-68
2022/12/21 06:40:18;;;;;;;;;2.00;2.00;;;;;20.52;37.85;101059.13;5051494;28;45319;-68
2022/12/21 06:42:43;;;;;;;;;2.50;2.50;;;;;20.62;38.04;101088.84;5052137;28;46313;-68
2022/12/21 06:45:09;;;;;;;;;3.00;1.75;;;;;20.62;38.41;101088.03;5052299;28;45331;-68
2022/12/21 06:47:34;;;;;;;;;2.50;1.50;;;;;20.62;38.27;101085.38;5052217;28;45310;-68
2022/12/21 06:49:59;;;;;;;;;1.00;1.00;;;;;20.62;38.19;101083.56;5051778;28;45311;-68
2022/12/21 06:52:25;;;;;;;;;2.75;1.50;;;;;20.62;38.12;101091.50;5052086;28;45352;-69
2022/12/21 06:54:50;;;;;;;;;2.00;2.00;;;;;20.62;38.24;101091.50;5042549;28;45319;-68
2022/12/21 06:57:15;;;;;;;;;3.25;2.25;;;;;20.63;37.91;101101.06;5031925;28;45393;-68
2022/12/21 06:59:40;;;;;;;;;3.00;1.75;;;;;20.63;37.94;101100.25;5032045;28;45328;-68
2022/12/21 07:02:08;;;;;;;;;1.00;1.00;;;;;20.62;38.18;101099.44;5034587;28;45302;-68
2022/12/21 07:04:34;;;;;;;;;2.00;2.00;;;;;20.62;37.98;101096.78;5051516;28;45308;-68
2022/12/21 07:06:59;;;;;;;;;2.00;2.00;;;;;20.62;38.33;101103.88;5051802;28;45228;-69
2022/12/21 07:09:24;;;;;;;;;2.50;2.50;;;;;20.62;38.08;101095.97;5051844;28;45202;-69
2022/12/21 07:11:52;;;;;;;;;2.00;2.00;;;;;20.55;37.99;101081.75;5053299;28;45214;-68
2022/12/21 07:14:17;;;;;;;;;2.00;2.00;;;;;20.63;38.24;101105.56;5054893;28;45556;-69
2022/12/21 07:16:42;;;;;;;;;4.00;2.75;;;;;20.62;38.00;101102.06;5055053;28;45403;-69
2022/12/21 07:19:08;;;;;;;;;2.00;2.00;;;;;20.54;38.27;101088.00;5054620;28;45354;-68
2022/12/21 07:21:33;;;;;;;;;1.00;1.00;;;;;20.61;38.19;101095.13;5054827;28;46195;-68
2022/12/21 07:23:58;;;;;;;;;3.00;3.00;;;;;20.60;38.28;101085.56;5055621;27;45434;-68
2022/12/21 07:26:24;;;;;;;;;1.25;1.25;;;;;20.60;38.36;101079.44;5055003;28;45351;-68
2022/12/21 07:28:51;;;;;;;;;3.00;0.75;;;;;20.61;38.16;101083.72;5054736;28;45330;-68
2022/12/21 07:31:22;;;;;;;;;2.00;1.00;;;;;20.61;38.06;101083.72;5054833;28;46593;-68
2022/12/21 07:33:47;;;;;;;;;3.50;2.00;;;;;20.60;38.25;101080.28;5054256;28;45300;-68
2022/12/21 07:36:13;;;;;;;;;2.75;2.00;;;;;20.53;38.42;101065.22;5054694;28;45304;-68
2022/12/21 07:38:40;;;;;;;;;2.00;1.00;;;;;20.60;38.28;101077.63;5054781;28;45287;-68
2022/12/21 07:41:07;;;;;;;;;1.00;1.00;;;;;20.59;38.12;101069.84;5054411;28;46330;-68
2022/12/21 07:43:33;;;;;;;;;2.75;2.75;;;;;20.59;38.11;101075.97;5054521;28;45385;-68
2022/12/21 07:45:59;;;;;;;;;2.00;2.00;;;;;20.59;38.22;101075.97;5054682;28;45304;-68
2022/12/21 07:48:25;;;;;;;;;2.00;2.00;;;;;20.49;38.29;101057.63;5054315;28;45402;-68
2022/12/21 07:50:51;;;;;;;;;1.50;1.50;;;;;20.58;37.75;101066.38;5054481;28;45403;-68
2022/12/21 07:53:17;;;;;;;;;2.00;2.00;;;;;20.58;38.20;101071.66;5055663;27;45351;-68
2022/12/21 07:55:43;;;;;;;;;2.00;2.00;;;;;20.57;37.97;101067.38;5037931;28;45385;-68
2022/12/21 07:58:08;;;;;;;;;3.25;2.00;;;;;20.59;38.07;101077.78;5034454;27;45383;-68
2022/12/21 08:00:34;;;;;;;;;1.25;1.25;;;;;20.50;38.09;101066.38;5034262;28;46190;-68
2022/12/21 08:03:00;;;;;;;;;2.00;2.00;;;;;20.57;38.50;101067.38;5043963;28;45353;-68
2022/12/21 08:05:27;;;;;;;;;2.25;2.00;;;;;20.57;38.31;101072.66;5054153;28;45394;-68
2022/12/21 08:07:53;;;;;;;;;1.00;1.00;;;;;20.58;38.10;101074.31;5054313;28;45452;-68
2022/12/21 08:10:18;;;;;;;;;3.25;2.00;;;;;20.57;38.11;101077.94;5054181;28;46909;-68
2022/12/21 08:12:44;;;;;;;;;3.00;3.00;;;;;20.57;38.20;101071.84;5054213;28;45247;-68
2022/12/21 08:15:09;;;;;;;;;2.00;2.00;;;;;20.57;37.92;101091.16;5054319;28;45391;-68
2022/12/21 08:17:35;;;;;;;;;1.75;1.75;;;;;20.57;38.28;101103.56;5053780;28;45447;-68
2022/12/21 08:20:01;;;;;;;;;3.25;2.00;;;;;20.57;38.04;101109.69;5054093;28;46051;-68
2022/12/21 08:22:26;;;;;;;;;1.00;1.00;;;;;20.58;38.23;101110.50;5054099;28;45411;-68
2022/12/21 08:24:52;;;;;;;;;2.50;2.50;;;;;20.58;38.37;101119.25;5054033;28;45353;-68
2022/12/21 08:27:18;;;;;;;;;4.50;3.75;;;;;20.57;38.23;101111.47;5054400;28;45335;-68
2022/12/21 08:29:43;;;;;;;;;1.50;1.50;;;;;20.54;38.17;101096.78;5053977;28;46841;-69
2022/12/21 08:32:09;;;;;;;;;2.25;1.50;;;;;20.59;37.94;101099.75;5053650;28;45335;-68
2022/12/21 08:34:34;;;;;;;;;2.00;1.00;;;;;20.54;38.01;101101.22;5054210;28;45277;-68
2022/12/21 08:37:00;;;;;;;;;1.00;1.00;;;;;20.40;38.19;101079.75;5053992;28;45459;-68
2022/12/21 08:39:26;;;;;;;;;3.00;3.00;;;;;20.60;38.15;101112.00;5053852;28;46208;-68
2022/12/21 08:41:52;;;;;;;;;2.00;1.00;;;;;20.52;38.11;101096.13;5053848;28;45344;-68
2022/12/21 08:44:17;;;;;;;;;1.00;1.00;;;;;20.60;38.18;101096.13;5054011;28;45347;-68
2022/12/21 08:46:42;;;;;;;;;1.00;1.00;;;;;20.59;38.25;101101.56;5053748;28;45361;-68
2022/12/21 08:49:08;;;;;;;;;2.00;1.00;;;;;20.54;37.85;101090.66;5053771;28;45215;-68
2022/12/21 08:51:34;;;;;;;;;2.00;2.00;;;;;20.61;38.04;101104.88;5053628;28;45212;-69
2022/12/21 08:54:00;;;;;;;;;2.25;2.25;;;;;20.61;38.10;101112.81;5051610;28;45296;-68
2022/12/21 08:56:25;;;;;;;;;1.75;1.75;;;;;20.61;38.01;101105.69;5033588;28;45276;-68
2022/12/21 08:58:51;;;;;;;;;2.25;1.00;;;;;20.61;38.24;101102.22;5033490;28;46142;-69
2022/12/21 09:01:22;;;;;;;;;2.00;2.00;;;;;20.62;38.22;101110.00;5033192;28;45299;-68
2022/12/21 09:03:48;;;;;;;;;1.00;1.00;;;;;20.62;38.03;101109.19;5050459;28;45387;-68
2022/12/21 09:06:13;;;;;;;;;2.25;1.25;;;;;20.62;37.95;101099.44;5053622;28;45423;-69
2022/12/21 09:08:39;;;;;;;;;1.25;1.25;;;;;20.50;37.99;101083.06;5053473;28;46790;-68
2022/12/21 09:11:10;;;;;;;;;1.75;1.75;;;;;20.63;38.17;101106.34;5053582;28;45442;-68
2022/12/21 09:13:36;;;;;;;;;1.75;1.75;;;;;20.62;38.11;101109.19;5053670;28;45292;-68
2022/12/21 09:16:02;;;;;;;;;2.50;2.50;;;;;20.58;38.42;101108.66;5053197;28;45320;-69
2022/12/21 09:18:28;;;;;;;;;1.25;0.75;;;;;20.62;38.28;101117.09;5053244;27;46455;-68
2022/12/21 09:20:54;;;;;;;;;2.00;2.00;;;;;20.62;38.06;101117.09;5053315;28;45363;-68
2022/12/21 09:23:20;;;;;;;;;2.75;1.00;;;;;20.61;37.97;101118.91;5053514;28;45295;-68
2022/12/21 09:25:46;;;;;;;;;1.25;1.25;;;;;20.61;37.92;101118.91;5053395;28;45562;-68
2022/12/21 09:28:11;;;;;;;;;1.00;1.00;;;;;20.61;38.29;101116.28;5053005;28;47091;-68
2022/12/21 09:30:37;;;;;;;;;1.25;1.25;;;;;20.59;38.23;101118.25;5052980;28;45344;-68
2022/12/21 09:33:02;;;;;;;;;1.00;1.00;;;;;20.60;37.99;101119.09;5053504;28;45325;-68
2022/12/21 09:35:27;;;;;;;;;2.67;1.00;;;;;20.59;37.96;101112.97;5052530;28;45319;-68
2022/12/21 09:37:52;;;;;;;;;1.00;1.00;;;;;20.59;38.31;101112.97;5053276;28;45383;-68
2022/12/21 09:40:20;;;;;;;;;1.00;1.00;;;;;20.53;38.11;101096.94;5053245;28;45455;-68
2022/12/21 09:43:01;;;;;;;;;0.75;0.75;;;;;20.59;38.36;101107.69;5052863;28;45404;-67
2022/12/21 09:45:48;;;;;;;;;0.50;0.50;;;;;20.59;37.96;101105.03;5053159;28;45349;-68
2022/12/21 09:48:27;;;;;;;;;1.00;1.00;;;;;20.58;38.29;101108.66;5052884;28;45465;-68
2022/12/21 09:51:01;;;;;;;;;1.25;1.25;;;;;20.38;38.04;101071.97;5052965;28;45268;-69
2022/12/21 09:53:35;;;;;;;;;1.00;1.00;;;;;20.58;38.16;101108.66;5052915;28;45372;-68
2022/12/21 09:56:01;;;;;;;;;2.00;2.00;;;;;20.55;37.70;101100.25;5033790;28;45375;-68
2022/12/21 09:58:41;;;;;;;;;1.50;1.00;;;;;20.53;38.15;101087.22;5032302;28;45357;-68
2022/12/21 10:01:19;;;;;;;;;2.00;2.00;;;;;20.57;38.06;101101.75;5032650;27;45280;-68
2022/12/21 10:03:59;;;;;;;;;2.00;1.00;;;;;20.57;38.14;101088.53;5049118;27;45477;-69
2022/12/21 10:06:42;;;;;;;;;1.00;1.00;;;;;20.56;38.24;101084.22;5052855;28;45260;-68
2022/12/21 10:09:20;;;;;;;;;1.00;1.00;;;;;20.56;38.38;101080.75;5052644;28;45381;-68
2022/12/21 10:12:15;;;;;;;;;3.00;2.00;;;;;20.56;38.30;101076.28;5052332;28;45555;-70
2022/12/21 10:14:49;;;;;;;;;1.00;1.00;;;;;20.56;37.81;101073.63;5052829;28;45696;-68
2022/12/21 10:17:20;;;;;;;;;1.00;1.00;;;;;20.56;38.00;101071.00;5034490;28;45443;-68
2022/12/21 10:19:51;;;;;;;;;2.00;1.00;;;;;20.56;38.17;101071.00;5052494;28;45359;-68
2022/12/21 10:22:38;;;;;;;;;2.25;1.00;;;;;20.56;38.10;101059.59;5052326;27;45291;-68
2022/12/21 10:25:21;;;;;;;;;3.00;2.00;;;;;20.49;37.96;101049.69;5052502;28;45426;-69
2022/12/21 10:27:51;;;;;;;;;1.00;1.00;;;;;20.46;38.11;101047.38;5052204;28;45459;-68
2022/12/21 10:30:17;;;;;;;;;1.75;1.00;;;;;20.56;38.17;101051.66;5034156;28;46035;-68
2022/12/21 10:32:47;;;;;;;;;2.50;2.50;;;;;20.55;37.94;101045.56;5034408;28;45455;-68
2022/12/21 10:35:36;;;;;;;;;2.25;2.00;;;;;20.56;38.08;101041.09;5052577;28;45338;-68
2022/12/21 10:38:14;;;;;;;;;1.00;1.00;;;;;20.56;38.35;101038.44;5037248;28;45421;-68
2022/12/21 10:40:43;;;;;;;;;2.00;1.25;;;;;20.56;38.16;101033.16;5052148;28;45960;-68
2022/12/21 10:43:12;;;;;;;;;1.75;1.75;;;;;20.56;38.24;101015.50;5051714;28;45410;-68
2022/12/21 10:45:38;;;;;;;;;2.00;2.00;;;;;20.57;37.89;101011.03;5052044;28;45452;-68
2022/12/21 10:48:03;;;;;;;;;3.00;3.00;;;;;20.58;38.03;101007.41;5055471;28;45223;-68
2022/12/21 10:50:32;;;;;;;;;1.00;1.00;;;;;20.58;38.31;101007.41;5055130;28;46297;-68
2022/12/21 10:53:00;;;;;;;;;1.00;1.00;;;;;20.59;38.15;101001.13;5055186;28;45393;-69
2022/12/21 10:55:32;;;;;;;;;1.75;1.00;;;;;20.60;38.03;101006.25;5040755;28;45423;-69
2022/12/21 10:58:00;;;;;;;;;2.00;2.00;;;;;20.60;38.41;100997.50;5035169;28;45294;-68
2022/12/21 11:00:36;;;;;;;;;2.00;2.00;;;;;20.56;38.31;100978.47;5034944;28;47167;-68
2022/12/21 11:03:03;;;;;;;;;1.25;1.25;;;;;20.59;38.19;100975.50;5045029;28;45291;-68
2022/12/21 11:05:35;;;;;;;;;1.00;1.00;;;;;20.60;38.18;100982.47;5055060;28;45362;-68
2022/12/21 11:08:13;;;;;;;;;3.00;1.67;;;;;20.61;38.08;100984.09;5055133;28;45504;-68
2022/12/21 11:10:43;;;;;;;;;0.67;0.67;;;;;20.59;37.94;100980.78;5054674;28;46862;-68
2022/12/21 11:13:11;;;;;;;;;1.00;1.00;;;;;20.45;38.04;100942.66;5055158;28;45374;-68
2022/12/21 11:15:36;;;;;;;;;2.50;1.00;;;;;20.60;38.00;100968.41;5055076;28;45372;-68
2022/12/21 11:18:02;;;;;;;;;2.67;1.00;;;;;20.61;37.96;100964.75;5054950;28;45415;-68
2022/12/21 11:20:28;;;;;;;;;1.67;1.67;;;;;20.60;38.10;100957.84;5054852;28;47612;-68
2022/12/21 11:22:56;;;;;;;;;1.00;1.00;;;;;20.61;38.04;100955.00;5053644;28;45377;-68
2022/12/21 11:25:27;;;;;;;;;1.00;1.00;;;;;20.60;38.28;100949.91;5054695;28;45300;-68
2022/12/21 11:28:01;;;;;;;;;0.00;0.00;;;;;20.60;38.10;100947.25;5055011;28;45352;-68
2022/12/21 11:30:34;;;;;;;;;2.25;2.25;;;;;20.50;37.97;100919.22;5036627;28;47419;-68
2022/12/21 11:33:01;;;;;;;;;1.00;1.00;;;;;20.60;38.06;100937.53;5054586;28;45456;-68
2022/12/21 11:35:29;;;;;;;;;1.33;1.33;;;;;20.59;37.96;100929.75;5054802;28;45388;-69
2022/12/21 11:38:08;;;;;;;;;1.50;1.50;;;;;20.60;38.19;100929.59;5054686;28;45277;-69
2022/12/21 11:40:33;;;;;;;;;1.00;1.00;;;;;20.60;38.02;100931.41;5036165;28;46131;-68
2022/12/21 11:42:59;;;;;;;;;2.00;2.00;;;;;20.59;38.05;100927.94;5054357;28;45376;-68
2022/12/21 11:45:43;;;;;;;;;1.50;1.00;;;;;20.59;38.43;100929.75;5054747;28;45476;-68